sensor_id;sensor_type;location;lat;lon;timestamp;pressure;altitude;pressure_sealevel;temperature;humidity
32875;BME280;40468;42.128;24.750;2023-01-28T00:00:11;98973.41;;;3.85;66.58
32875;BME280;40468;42.128;24.750;2023-01-28T00:01:43;98975.19;;;3.83;66.90
32875;BME280;40468;42.128;24.750;2023-01-28T00:03:15;98974.34;;;3.82;66.85
32875;BME280;40468;42.128;24.750;2023-01-28T00:04:47;98972.59;;;3.83;66.93
32875;BME280;40468;42.128;24.750;2023-01-28T00:06:19;98982.09;;;3.81;66.97
32875;BME280;40468;42.128;24.750;2023-01-28T00:07:51;98965.16;;;3.74;66.96
32875;BME280;40468;42.128;24.750;2023-01-28T00:09:25;98973.63;;;3.77;67.12
32875;BME280;40468;42.128;24.750;2023-01-28T00:10:57;98965.09;;;3.75;67.11
32875;BME280;40468;42.128;24.750;2023-01-28T00:12:30;98973.72;;;3.74;67.18
32875;BME280;40468;42.128;24.750;2023-01-28T00:14:02;98977.16;;;3.75;67.15
32875;BME280;40468;42.128;24.750;2023-01-28T00:15:34;98979.78;;;3.73;67.20
32875;BME280;40468;42.128;24.750;2023-01-28T00:17:06;98972.00;;;3.75;67.27
32875;BME280;40468;42.128;24.750;2023-01-28T00:18:38;98975.41;;;3.75;67.22
32875;BME280;40468;42.128;24.750;2023-01-28T00:20:11;98973.72;;;3.74;67.23
32875;BME280;40468;42.128;24.750;2023-01-28T00:21:42;98976.28;;;3.76;67.35
32875;BME280;40468;42.128;24.750;2023-01-28T00:23:14;98979.69;;;3.76;67.15
32875;BME280;40468;42.128;24.750;2023-01-28T00:24:47;98975.50;;;3.72;67.39
32875;BME280;40468;42.128;24.750;2023-01-28T00:26:20;98981.38;;;3.77;67.27
32875;BME280;40468;42.128;24.750;2023-01-28T00:27:51;98983.91;;;3.79;67.35
32875;BME280;40468;42.128;24.750;2023-01-28T00:29:23;98985.69;;;3.77;67.28
32875;BME280;40468;42.128;24.750;2023-01-28T00:30:56;98992.56;;;3.76;67.21
32875;BME280;40468;42.128;24.750;2023-01-28T00:32:26;98988.25;;;3.77;67.32
32875;BME280;40468;42.128;24.750;2023-01-28T00:33:58;98996.81;;;3.77;67.28
32875;BME280;40468;42.128;24.750;2023-01-28T00:35:30;98991.66;;;3.77;67.32
32875;BME280;40468;42.128;24.750;2023-01-28T00:37:02;98993.44;;;3.75;67.39
32875;BME280;40468;42.128;24.750;2023-01-28T00:38:34;99001.16;;;3.75;67.43
32875;BME280;40468;42.128;24.750;2023-01-28T00:40:09;99006.38;;;3.74;67.64
32875;BME280;40468;42.128;24.750;2023-01-28T00:41:42;99005.53;;;3.73;67.44
32875;BME280;40468;42.128;24.750;2023-01-28T00:43:13;99007.22;;;3.74;67.64
32875;BME280;40468;42.128;24.750;2023-01-28T00:44:45;99012.34;;;3.74;67.44
32875;BME280;40468;42.128;24.750;2023-01-28T00:46:18;99014.09;;;3.74;67.58
32875;BME280;40468;42.128;24.750;2023-01-28T00:47:50;99010.00;;;3.67;67.42
32875;BME280;40468;42.128;24.750;2023-01-28T00:49:22;99023.56;;;3.73;67.31
32875;BME280;40468;42.128;24.750;2023-01-28T00:50:53;99023.56;;;3.73;67.66
32875;BME280;40468;42.128;24.750;2023-01-28T00:52:26;99023.59;;;3.72;67.76
32875;BME280;40468;42.128;24.750;2023-01-28T00:53:59;99025.34;;;3.70;67.84
32875;BME280;40468;42.128;24.750;2023-01-28T00:55:32;99023.66;;;3.70;67.69
32875;BME280;40468;42.128;24.750;2023-01-28T00:57:04;99027.09;;;3.69;67.62
32875;BME280;40468;42.128;24.750;2023-01-28T00:58:37;99012.72;;;3.62;67.65
32875;BME280;40468;42.128;24.750;2023-01-28T01:00:10;99025.50;;;3.65;67.74
32875;BME280;40468;42.128;24.750;2023-01-28T01:01:42;99023.78;;;3.65;67.79
32875;BME280;40468;42.128;24.750;2023-01-28T01:03:14;99026.34;;;3.65;67.66
32875;BME280;40468;42.128;24.750;2023-01-28T01:04:44;99026.41;;;3.64;67.65
32875;BME280;40468;42.128;24.750;2023-01-28T01:06:24;99028.03;;;3.67;67.85
32875;BME280;40468;42.128;24.750;2023-01-28T01:07:55;99034.97;;;3.64;67.74
32875;BME280;40468;42.128;24.750;2023-01-28T01:09:27;99029.84;;;3.63;67.82
32875;BME280;40468;42.128;24.750;2023-01-28T01:11:01;99030.69;;;3.63;67.77
32875;BME280;40468;42.128;24.750;2023-01-28T01:12:33;99022.94;;;3.65;67.83
32875;BME280;40468;42.128;24.750;2023-01-28T01:14:04;99020.31;;;3.67;67.90
32875;BME280;40468;42.128;24.750;2023-01-28T01:15:36;99023.84;;;3.64;67.67
32875;BME280;40468;42.128;24.750;2023-01-28T01:17:08;99023.03;;;3.62;67.72
32875;BME280;40468;42.128;24.750;2023-01-28T01:18:39;99030.75;;;3.62;67.83
32875;BME280;40468;42.128;24.750;2023-01-28T01:20:13;99025.63;;;3.60;67.79
32875;BME280;40468;42.128;24.750;2023-01-28T01:21:44;99021.34;;;3.61;67.78
32875;BME280;40468;42.128;24.750;2023-01-28T01:23:19;99030.78;;;3.60;67.73
32875;BME280;40468;42.128;24.750;2023-01-28T01:24:51;99027.34;;;3.61;67.70
32875;BME280;40468;42.128;24.750;2023-01-28T01:26:24;99020.63;;;3.56;67.61
32875;BME280;40468;42.128;24.750;2023-01-28T01:27:57;99026.50;;;3.61;67.63
32875;BME280;40468;42.128;24.750;2023-01-28T01:29:29;99037.66;;;3.60;67.59
32875;BME280;40468;42.128;24.750;2023-01-28T01:31:01;99025.72;;;3.57;67.55
32875;BME280;40468;42.128;24.750;2023-01-28T01:32:33;99028.34;;;3.56;67.71
32875;BME280;40468;42.128;24.750;2023-01-28T01:34:05;99034.34;;;3.56;67.52
32875;BME280;40468;42.128;24.750;2023-01-28T01:35:36;99035.25;;;3.55;67.72
32875;BME280;40468;42.128;24.750;2023-01-28T01:37:08;99037.72;;;3.58;67.81
32875;BME280;40468;42.128;24.750;2023-01-28T01:38:40;99035.16;;;3.58;67.81
32875;BME280;40468;42.128;24.750;2023-01-28T01:40:12;99041.16;;;3.57;67.63
32875;BME280;40468;42.128;24.750;2023-01-28T01:41:45;99041.25;;;3.54;67.71
32875;BME280;40468;42.128;24.750;2023-01-28T01:43:18;99038.66;;;3.56;67.78
32875;BME280;40468;42.128;24.750;2023-01-28T01:44:55;99033.44;;;3.57;67.87
32875;BME280;40468;42.128;24.750;2023-01-28T01:46:33;99029.28;;;3.53;67.74
32875;BME280;40468;42.128;24.750;2023-01-28T01:48:12;99049.78;;;3.56;67.93
32875;BME280;40468;42.128;24.750;2023-01-28T01:49:48;99045.38;;;3.60;67.74
32875;BME280;40468;42.128;24.750;2023-01-28T01:51:22;99047.03;;;3.62;67.65
32875;BME280;40468;42.128;24.750;2023-01-28T01:52:58;99047.84;;;3.64;67.73
32875;BME280;40468;42.128;24.750;2023-01-28T01:54:32;99047.88;;;3.63;67.77
32875;BME280;40468;42.128;24.750;2023-01-28T01:56:08;99046.13;;;3.63;67.75
32875;BME280;40468;42.128;24.750;2023-01-28T01:57:43;99054.72;;;3.64;67.65
32875;BME280;40468;42.128;24.750;2023-01-28T01:59:20;99060.75;;;3.63;67.70
32875;BME280;40468;42.128;24.750;2023-01-28T02:00:53;99049.59;;;3.62;67.67
32875;BME280;40468;42.128;24.750;2023-01-28T02:02:24;99057.25;;;3.65;67.64
32875;BME280;40468;42.128;24.750;2023-01-28T02:04:02;99061.50;;;3.67;67.46
32875;BME280;40468;42.128;24.750;2023-01-28T02:05:35;99063.31;;;3.63;67.13
32875;BME280;40468;42.128;24.750;2023-01-28T02:07:08;99066.78;;;3.62;67.18
32875;BME280;40468;42.128;24.750;2023-01-28T02:08:43;99056.44;;;3.63;67.24
32875;BME280;40468;42.128;24.750;2023-01-28T02:10:15;99064.94;;;3.67;67.22
32875;BME280;40468;42.128;24.750;2023-01-28T02:11:47;99070.97;;;3.66;67.09
32875;BME280;40468;42.128;24.750;2023-01-28T02:13:23;99069.28;;;3.65;67.09
32875;BME280;40468;42.128;24.750;2023-01-28T02:14:59;99068.38;;;3.66;66.90
32875;BME280;40468;42.128;24.750;2023-01-28T02:16:32;99074.38;;;3.67;67.00
32875;BME280;40468;42.128;24.750;2023-01-28T02:18:04;99081.22;;;3.68;66.93
32875;BME280;40468;42.128;24.750;2023-01-28T02:19:38;99076.19;;;3.63;66.93
32875;BME280;40468;42.128;24.750;2023-01-28T02:23:36;99076.94;;;3.67;66.78
32875;BME280;40468;42.128;24.750;2023-01-28T02:25:31;99072.75;;;3.64;66.85
32875;BME280;40468;42.128;24.750;2023-01-28T02:27:23;99085.47;;;3.69;66.88
32875;BME280;40468;42.128;24.750;2023-01-28T02:29:04;99083.75;;;3.69;66.89
32875;BME280;40468;42.128;24.750;2023-01-28T02:30:40;99082.81;;;3.72;66.92
32875;BME280;40468;42.128;24.750;2023-01-28T02:32:18;99078.50;;;3.72;67.10
32875;BME280;40468;42.128;24.750;2023-01-28T02:33:56;99083.72;;;3.71;66.88
32875;BME280;40468;42.128;24.750;2023-01-28T02:35:34;99092.25;;;3.73;67.07
32875;BME280;40468;42.128;24.750;2023-01-28T02:37:13;99092.31;;;3.70;66.94
32875;BME280;40468;42.128;24.750;2023-01-28T02:38:47;99093.19;;;3.70;66.89
32875;BME280;40468;42.128;24.750;2023-01-28T02:40:23;99084.63;;;3.68;66.89
32875;BME280;40468;42.128;24.750;2023-01-28T02:42:03;99084.72;;;3.65;66.78
32875;BME280;40468;42.128;24.750;2023-01-28T02:43:38;99094.09;;;3.68;66.82
32875;BME280;40468;42.128;24.750;2023-01-28T02:45:17;99082.00;;;3.70;66.63
32875;BME280;40468;42.128;24.750;2023-01-28T02:46:52;99088.06;;;3.69;66.55
32875;BME280;40468;42.128;24.750;2023-01-28T02:48:41;99094.13;;;3.66;66.53
32875;BME280;40468;42.128;24.750;2023-01-28T02:50:13;99094.97;;;3.67;66.59
32875;BME280;40468;42.128;24.750;2023-01-28T02:52:01;99100.91;;;3.70;66.57
32875;BME280;40468;42.128;24.750;2023-01-28T02:53:39;99094.84;;;3.71;66.58
32875;BME280;40468;42.128;24.750;2023-01-28T02:55:18;99106.88;;;3.71;66.39
32875;BME280;40468;42.128;24.750;2023-01-28T02:56:56;99096.63;;;3.69;66.25
32875;BME280;40468;42.128;24.750;2023-01-28T02:58:37;99092.44;;;3.65;66.22
32875;BME280;40468;42.128;24.750;2023-01-28T03:00:18;99097.59;;;3.65;66.19
32875;BME280;40468;42.128;24.750;2023-01-28T03:01:55;99102.66;;;3.68;66.23
32875;BME280;40468;42.128;24.750;2023-01-28T03:03:34;99097.47;;;3.70;66.15
32875;BME280;40468;42.128;24.750;2023-01-28T03:05:14;99092.41;;;3.67;66.13
32875;BME280;40468;42.128;24.750;2023-01-28T03:06:53;99103.47;;;3.70;65.76
32875;BME280;40468;42.128;24.750;2023-01-28T03:08:31;99097.47;;;3.70;65.78
32875;BME280;40468;42.128;24.750;2023-01-28T03:10:24;99105.25;;;3.68;65.59
32875;BME280;40468;42.128;24.750;2023-01-28T03:12:00;99100.94;;;3.69;65.77
32875;BME280;40468;42.128;24.750;2023-01-28T03:13:51;99101.84;;;3.66;65.72
32875;BME280;40468;42.128;24.750;2023-01-28T03:15:44;99104.44;;;3.66;65.57
32875;BME280;40468;42.128;24.750;2023-01-28T03:17:38;99107.91;;;3.65;65.62
32875;BME280;40468;42.128;24.750;2023-01-28T03:19:29;99101.94;;;3.63;65.74
32875;BME280;40468;42.128;24.750;2023-01-28T03:21:21;99108.81;;;3.62;65.69
32875;BME280;40468;42.128;24.750;2023-01-28T03:23:16;99108.81;;;3.62;65.55
32875;BME280;40468;42.128;24.750;2023-01-28T03:25:07;99108.91;;;3.59;65.58
32875;BME280;40468;42.128;24.750;2023-01-28T03:27:02;99105.50;;;3.59;65.52
32875;BME280;40468;42.128;24.750;2023-01-28T03:28:56;99114.03;;;3.61;65.53
32875;BME280;40468;42.128;24.750;2023-01-28T03:30:56;99101.09;;;3.62;65.48
32875;BME280;40468;42.128;24.750;2023-01-28T03:32:46;99098.59;;;3.61;65.32
32875;BME280;40468;42.128;24.750;2023-01-28T03:34:36;99107.16;;;3.61;65.29
32875;BME280;40468;42.128;24.750;2023-01-28T03:36:26;99120.88;;;3.62;65.38
32875;BME280;40468;42.128;24.750;2023-01-28T03:38:16;99114.91;;;3.60;65.04
32875;BME280;40468;42.128;24.750;2023-01-28T03:39:50;99114.06;;;3.59;65.07
32875;BME280;40468;42.128;24.750;2023-01-28T03:41:22;99123.47;;;3.60;64.98
32875;BME280;40468;42.128;24.750;2023-01-28T03:42:54;99127.69;;;3.63;65.08
32875;BME280;40468;42.128;24.750;2023-01-28T03:44:26;99120.88;;;3.62;65.02
32875;BME280;40468;42.128;24.750;2023-01-28T03:46:17;99129.47;;;3.61;64.97
32875;BME280;40468;42.128;24.750;2023-01-28T03:47:49;99120.88;;;3.60;64.99
32875;BME280;40468;42.128;24.750;2023-01-28T03:49:20;99117.44;;;3.61;64.92
32875;BME280;40468;42.128;24.750;2023-01-28T03:50:53;99123.47;;;3.60;64.96
32875;BME280;40468;42.128;24.750;2023-01-28T03:52:27;99126.03;;;3.60;65.05
32875;BME280;40468;42.128;24.750;2023-01-28T03:54:01;99127.75;;;3.61;65.10
32875;BME280;40468;42.128;24.750;2023-01-28T03:55:32;99129.47;;;3.61;64.96
32875;BME280;40468;42.128;24.750;2023-01-28T03:57:04;99134.66;;;3.59;65.11
32875;BME280;40468;42.128;24.750;2023-01-28T03:58:35;99127.78;;;3.60;64.95
32875;BME280;40468;42.128;24.750;2023-01-28T04:00:22;99131.25;;;3.59;65.04
32875;BME280;40468;42.128;24.750;2023-01-28T04:01:55;99128.69;;;3.57;64.98
32875;BME280;40468;42.128;24.750;2023-01-28T04:03:26;99118.47;;;3.56;64.91
32875;BME280;40468;42.128;24.750;2023-01-28T04:04:58;99127.09;;;3.53;64.89
32875;BME280;40468;42.128;24.750;2023-01-28T04:06:30;99131.34;;;3.54;65.17
32875;BME280;40468;42.128;24.750;2023-01-28T04:08:02;99131.34;;;3.54;65.02
32875;BME280;40468;42.128;24.750;2023-01-28T04:09:33;99136.41;;;3.57;65.05
32875;BME280;40468;42.128;24.750;2023-01-28T04:11:06;99130.44;;;3.57;65.10
32875;BME280;40468;42.128;24.750;2023-01-28T04:12:45;99135.66;;;3.55;65.16
32875;BME280;40468;42.128;24.750;2023-01-28T04:14:19;99145.97;;;3.54;65.05
32875;BME280;40468;42.128;24.750;2023-01-28T04:15:51;99126.28;;;3.53;65.17
32875;BME280;40468;42.128;24.750;2023-01-28T04:17:24;99128.78;;;3.54;65.17
32875;BME280;40468;42.128;24.750;2023-01-28T04:18:56;99127.09;;;3.53;65.19
32875;BME280;40468;42.128;24.750;2023-01-28T04:20:28;99127.09;;;3.53;65.15
32875;BME280;40468;42.128;24.750;2023-01-28T04:22:00;99123.72;;;3.51;65.17
32875;BME280;40468;42.128;24.750;2023-01-28T04:23:32;99134.84;;;3.52;65.23
32875;BME280;40468;42.128;24.750;2023-01-28T04:25:04;99128.13;;;3.48;65.11
32875;BME280;40468;42.128;24.750;2023-01-28T04:26:35;99136.75;;;3.45;65.25
32875;BME280;40468;42.128;24.750;2023-01-28T04:28:07;99141.03;;;3.46;65.24
32875;BME280;40468;42.128;24.750;2023-01-28T04:29:39;99141.88;;;3.47;65.21
32875;BME280;40468;42.128;24.750;2023-01-28T04:31:10;99136.72;;;3.47;65.28
32875;BME280;40468;42.128;24.750;2023-01-28T04:32:44;99140.97;;;3.48;65.16
32875;BME280;40468;42.128;24.750;2023-01-28T04:34:16;99131.75;;;3.40;65.19
32875;BME280;40468;42.128;24.750;2023-01-28T04:35:49;99145.38;;;3.44;65.22
32875;BME280;40468;42.128;24.750;2023-01-28T04:37:20;99138.53;;;3.43;65.09
32875;BME280;40468;42.128;24.750;2023-01-28T04:38:52;99146.22;;;3.45;65.23
32875;BME280;40468;42.128;24.750;2023-01-28T04:40:24;99138.53;;;3.43;65.18
32875;BME280;40468;42.128;24.750;2023-01-28T04:41:56;99147.19;;;3.40;65.17
32875;BME280;40468;42.128;24.750;2023-01-28T04:43:28;99148.81;;;3.43;65.19
32875;BME280;40468;42.128;24.750;2023-01-28T04:45:00;99150.59;;;3.41;65.19
32875;BME280;40468;42.128;24.750;2023-01-28T04:46:32;99152.44;;;3.37;65.15
32875;BME280;40468;42.128;24.750;2023-01-28T04:48:05;99156.63;;;3.40;65.18
32875;BME280;40468;42.128;24.750;2023-01-28T04:49:36;99158.34;;;3.39;65.22
32875;BME280;40468;42.128;24.750;2023-01-28T04:51:08;99166.84;;;3.43;65.24
32875;BME280;40468;42.128;24.750;2023-01-28T04:52:40;99160.91;;;3.41;65.24
32875;BME280;40468;42.128;24.750;2023-01-28T04:54:11;99163.50;;;3.39;65.18
32875;BME280;40468;42.128;24.750;2023-01-28T04:55:44;99156.88;;;3.31;65.30
32875;BME280;40468;42.128;24.750;2023-01-28T04:57:14;99167.88;;;3.36;65.34
32875;BME280;40468;42.128;24.750;2023-01-28T04:58:46;99167.06;;;3.35;65.23
32875;BME280;40468;42.128;24.750;2023-01-28T05:00:18;99182.53;;;3.34;65.26
32875;BME280;40468;42.128;24.750;2023-01-28T05:01:50;99176.59;;;3.32;65.38
32875;BME280;40468;42.128;24.750;2023-01-28T05:03:24;99179.25;;;3.29;65.45
32875;BME280;40468;42.128;24.750;2023-01-28T05:04:56;99168.97;;;3.27;65.52
32875;BME280;40468;42.128;24.750;2023-01-28T05:06:28;99185.16;;;3.31;65.50
32875;BME280;40468;42.128;24.750;2023-01-28T05:08:00;99186.97;;;3.29;65.43
32875;BME280;40468;42.128;24.750;2023-01-28T05:09:31;99182.66;;;3.29;65.45
32875;BME280;40468;42.128;24.750;2023-01-28T05:11:03;99179.25;;;3.27;65.49
32875;BME280;40468;42.128;24.750;2023-01-28T05:12:35;99187.75;;;3.31;65.51
32875;BME280;40468;42.128;24.750;2023-01-28T05:14:06;99185.97;;;3.34;65.44
32875;BME280;40468;42.128;24.750;2023-01-28T05:15:38;99191.09;;;3.34;65.48
32875;BME280;40468;42.128;24.750;2023-01-28T05:17:08;99189.31;;;3.36;65.42
32875;BME280;40468;42.128;24.750;2023-01-28T05:18:42;99189.41;;;3.33;65.40
32875;BME280;40468;42.128;24.750;2023-01-28T05:20:17;99191.03;;;3.37;65.49
32875;BME280;40468;42.128;24.750;2023-01-28T05:21:49;99196.97;;;3.39;65.42
32875;BME280;40468;42.128;24.750;2023-01-28T05:23:21;99179.25;;;3.29;65.35
32875;BME280;40468;42.128;24.750;2023-01-28T05:24:53;99196.13;;;3.39;65.42
32875;BME280;40468;42.128;24.750;2023-01-28T05:26:23;99206.34;;;3.42;65.30
32875;BME280;40468;42.128;24.750;2023-01-28T05:27:55;99202.88;;;3.43;65.34
32875;BME280;40468;42.128;24.750;2023-01-28T05:29:27;99197.69;;;3.45;65.34
32875;BME280;40468;42.128;24.750;2023-01-28T05:31:02;99199.38;;;3.46;65.21
32875;BME280;40468;42.128;24.750;2023-01-28T05:32:34;99190.94;;;3.40;65.22
32875;BME280;40468;42.128;24.750;2023-01-28T05:34:06;99200.25;;;3.46;65.17
32875;BME280;40468;42.128;24.750;2023-01-28T05:35:38;99199.34;;;3.47;65.06
32875;BME280;40468;42.128;24.750;2023-01-28T05:37:10;99206.16;;;3.50;65.00
32875;BME280;40468;42.128;24.750;2023-01-28T05:38:40;99201.78;;;3.52;65.03
32875;BME280;40468;42.128;24.750;2023-01-28T05:40:12;99211.25;;;3.51;65.04
32875;BME280;40468;42.128;24.750;2023-01-28T05:41:44;99212.09;;;3.52;64.98
32875;BME280;40468;42.128;24.750;2023-01-28T05:43:16;99215.53;;;3.52;65.00
32875;BME280;40468;42.128;24.750;2023-01-28T05:44:48;99211.25;;;3.51;65.17
32875;BME280;40468;42.128;24.750;2023-01-28T05:46:20;99218.94;;;3.53;65.00
32875;BME280;40468;42.128;24.750;2023-01-28T05:47:52;99222.44;;;3.50;65.03
32875;BME280;40468;42.128;24.750;2023-01-28T05:49:24;99227.53;;;3.52;65.00
32875;BME280;40468;42.128;24.750;2023-01-28T05:50:56;99214.72;;;3.50;64.92
32875;BME280;40468;42.128;24.750;2023-01-28T05:52:28;99229.25;;;3.53;64.96
32875;BME280;40468;42.128;24.750;2023-01-28T05:54:00;99227.53;;;3.52;64.96
32875;BME280;40468;42.128;24.750;2023-01-28T05:55:32;99229.25;;;3.53;64.84
32875;BME280;40468;42.128;24.750;2023-01-28T05:57:04;99225.81;;;3.52;64.83
32875;BME280;40468;42.128;24.750;2023-01-28T05:58:36;99239.47;;;3.54;64.87
32875;BME280;40468;42.128;24.750;2023-01-28T06:00:09;99235.22;;;3.53;64.77
32875;BME280;40468;42.128;24.750;2023-01-28T06:01:41;99233.56;;;3.51;64.78
32875;BME280;40468;42.128;24.750;2023-01-28T06:03:12;99238.66;;;3.54;64.81
32875;BME280;40468;42.128;24.750;2023-01-28T06:04:45;99241.22;;;3.54;64.82
32875;BME280;40468;42.128;24.750;2023-01-28T06:06:17;99240.31;;;3.55;65.03
32875;BME280;40468;42.128;24.750;2023-01-28T06:07:49;99260.91;;;3.56;64.89
32875;BME280;40468;42.128;24.750;2023-01-28T06:09:21;99249.75;;;3.56;64.88
32875;BME280;40468;42.128;24.750;2023-01-28T06:10:52;99251.44;;;3.57;65.00
32875;BME280;40468;42.128;24.750;2023-01-28T06:12:24;99258.28;;;3.58;64.95
32875;BME280;40468;42.128;24.750;2023-01-28T06:13:56;99262.47;;;3.62;65.07
32875;BME280;40468;42.128;24.750;2023-01-28T06:15:28;99271.00;;;3.64;64.84
32875;BME280;40468;42.128;24.750;2023-01-28T06:17:00;99264.97;;;3.65;64.81
32875;BME280;40468;42.128;24.750;2023-01-28T06:18:32;99267.41;;;3.70;64.80
32875;BME280;40468;42.128;24.750;2023-01-28T06:20:09;99258.84;;;3.69;64.75
32875;BME280;40468;42.128;24.750;2023-01-28T06:21:42;99268.19;;;3.73;64.61
32875;BME280;40468;42.128;24.750;2023-01-28T06:23:14;99274.06;;;3.78;64.61
32875;BME280;40468;42.128;24.750;2023-01-28T06:24:46;99276.59;;;3.80;64.61
32875;BME280;40468;42.128;24.750;2023-01-28T06:26:18;99276.53;;;3.81;64.65
32875;BME280;40468;42.128;24.750;2023-01-28T06:27:49;99273.09;;;3.82;64.70
32875;BME280;40468;42.128;24.750;2023-01-28T06:29:20;99278.25;;;3.82;64.72
32875;BME280;40468;42.128;24.750;2023-01-28T06:30:52;99276.41;;;3.87;64.75
32875;BME280;40468;42.128;24.750;2023-01-28T06:32:24;99281.56;;;3.87;64.63
32875;BME280;40468;42.128;24.750;2023-01-28T06:33:56;99284.91;;;3.91;64.76
32875;BME280;40468;42.128;24.750;2023-01-28T06:35:30;99279.63;;;3.96;64.70
32875;BME280;40468;42.128;24.750;2023-01-28T06:37:02;99286.50;;;3.95;64.50
32875;BME280;40468;42.128;24.750;2023-01-28T06:38:34;99287.25;;;3.99;64.45
32875;BME280;40468;42.128;24.750;2023-01-28T06:40:07;99287.25;;;3.99;64.47
32875;BME280;40468;42.128;24.750;2023-01-28T06:41:39;99291.56;;;3.98;64.43
32875;BME280;40468;42.128;24.750;2023-01-28T06:43:11;99296.78;;;3.97;64.56
32875;BME280;40468;42.128;24.750;2023-01-28T06:44:41;99293.47;;;3.92;64.55
32875;BME280;40468;42.128;24.750;2023-01-28T06:46:13;99302.78;;;3.96;64.62
32875;BME280;40468;42.128;24.750;2023-01-28T06:47:45;99301.06;;;3.96;64.64
32875;BME280;40468;42.128;24.750;2023-01-28T06:49:17;99309.59;;;3.98;64.67
32875;BME280;40468;42.128;24.750;2023-01-28T06:50:51;99307.94;;;3.97;64.51
32875;BME280;40468;42.128;24.750;2023-01-28T06:52:23;99309.75;;;3.94;64.68
32875;BME280;40468;42.128;24.750;2023-01-28T06:53:55;99309.75;;;3.92;64.77
32875;BME280;40468;42.128;24.750;2023-01-28T06:55:26;99307.16;;;3.94;64.75
32875;BME280;40468;42.128;24.750;2023-01-28T06:56:58;99314.91;;;3.94;64.82
32875;BME280;40468;42.128;24.750;2023-01-28T06:58:30;99301.94;;;3.97;64.75
32875;BME280;40468;42.128;24.750;2023-01-28T07:00:03;99308.75;;;3.98;64.80
32875;BME280;40468;42.128;24.750;2023-01-28T07:01:35;99313.03;;;3.99;64.77
32875;BME280;40468;42.128;24.750;2023-01-28T07:03:06;99315.50;;;4.02;64.74
32875;BME280;40468;42.128;24.750;2023-01-28T07:04:37;99322.31;;;4.04;64.65
32875;BME280;40468;42.128;24.750;2023-01-28T07:06:10;99323.13;;;4.06;64.76
32875;BME280;40468;42.128;24.750;2023-01-28T07:07:42;99317.91;;;4.09;64.78
32875;BME280;40468;42.128;24.750;2023-01-28T07:09:15;99318.81;;;4.07;64.85
32875;BME280;40468;42.128;24.750;2023-01-28T07:10:47;99326.56;;;4.07;64.89
32875;BME280;40468;42.128;24.750;2023-01-28T07:12:19;99327.38;;;4.09;64.90
32875;BME280;40468;42.128;24.750;2023-01-28T07:13:51;99329.81;;;4.14;64.83
32875;BME280;40468;42.128;24.750;2023-01-28T07:15:22;99328.94;;;4.15;64.90
32875;BME280;40468;42.128;24.750;2023-01-28T07:16:54;99328.03;;;4.16;64.86
32875;BME280;40468;42.128;24.750;2023-01-28T07:18:26;99327.88;;;4.22;64.96
32875;BME280;40468;42.128;24.750;2023-01-28T07:19:58;99339.88;;;4.23;64.90
32875;BME280;40468;42.128;24.750;2023-01-28T07:21:31;99336.38;;;4.25;64.82
32875;BME280;40468;42.128;24.750;2023-01-28T07:23:03;99336.34;;;4.27;64.77
32875;BME280;40468;42.128;24.750;2023-01-28T07:24:33;99331.09;;;4.30;64.79
32875;BME280;40468;42.128;24.750;2023-01-28T07:26:05;99331.91;;;4.32;64.60
32875;BME280;40468;42.128;24.750;2023-01-28T07:27:37;99338.69;;;4.34;64.38
32875;BME280;40468;42.128;24.750;2023-01-28T07:29:09;99344.72;;;4.35;64.27
32875;BME280;40468;42.128;24.750;2023-01-28T07:30:41;99345.47;;;4.39;64.36
32875;BME280;40468;42.128;24.750;2023-01-28T07:32:13;99342.91;;;4.39;64.23
32875;BME280;40468;42.128;24.750;2023-01-28T07:33:45;99344.50;;;4.43;64.15
32875;BME280;40468;42.128;24.750;2023-01-28T07:35:16;99340.25;;;4.42;63.78
32875;BME280;40468;42.128;24.750;2023-01-28T07:36:50;99353.16;;;4.40;63.75
32875;BME280;40468;42.128;24.750;2023-01-28T07:38:21;99357.44;;;4.41;63.67
32875;BME280;40468;42.128;24.750;2023-01-28T07:39:53;99356.53;;;4.44;63.87
32875;BME280;40468;42.128;24.750;2023-01-28T07:41:25;99350.38;;;4.48;63.68
32875;BME280;40468;42.128;24.750;2023-01-28T07:42:57;99359.78;;;4.50;63.64
32875;BME280;40468;42.128;24.750;2023-01-28T07:44:28;99364.88;;;4.52;63.40
32875;BME280;40468;42.128;24.750;2023-01-28T07:46:00;99358.78;;;4.54;63.38
32875;BME280;40468;42.128;24.750;2023-01-28T07:47:32;99358.75;;;4.56;63.12
32875;BME280;40468;42.128;24.750;2023-01-28T07:49:03;99361.25;;;4.59;63.09
32875;BME280;40468;42.128;24.750;2023-01-28T07:50:35;99373.13;;;4.65;62.82
32875;BME280;40468;42.128;24.750;2023-01-28T07:52:08;99367.00;;;4.67;62.58
32875;BME280;40468;42.128;24.750;2023-01-28T07:53:40;99366.06;;;4.71;62.40
32875;BME280;40468;42.128;24.750;2023-01-28T07:55:12;99355.00;;;4.68;62.32
32875;BME280;40468;42.128;24.750;2023-01-28T07:56:44;99362.28;;;4.83;62.33
32875;BME280;40468;42.128;24.750;2023-01-28T07:58:16;99360.09;;;4.99;62.11
32875;BME280;40468;42.128;24.750;2023-01-28T07:59:48;99366.34;;;5.20;61.79
32875;BME280;40468;42.128;24.750;2023-01-28T08:01:20;99368.41;;;5.38;61.38
32875;BME280;40468;42.128;24.750;2023-01-28T08:02:55;99360.25;;;5.51;60.74
32875;BME280;40468;42.128;24.750;2023-01-28T08:04:27;99370.13;;;5.64;60.30
32875;BME280;40468;42.128;24.750;2023-01-28T08:05:59;99373.97;;;5.79;59.86
32875;BME280;40468;42.128;24.750;2023-01-28T08:07:32;99368.28;;;5.96;59.32
32875;BME280;40468;42.128;24.750;2023-01-28T08:09:04;99368.34;;;6.20;58.84
32875;BME280;40468;42.128;24.750;2023-01-28T08:10:38;99371.69;;;6.48;58.72
32875;BME280;40468;42.128;24.750;2023-01-28T08:12:10;99385.38;;;6.75;58.13
32875;BME280;40468;42.128;24.750;2023-01-28T08:13:42;99389.72;;;6.98;57.05
32875;BME280;40468;42.128;24.750;2023-01-28T08:15:14;99382.81;;;7.21;56.50
32875;BME280;40468;42.128;24.750;2023-01-28T08:16:45;99391.75;;;7.36;55.56
32875;BME280;40468;42.128;24.750;2023-01-28T08:18:17;99382.97;;;7.40;55.61
32875;BME280;40468;42.128;24.750;2023-01-28T08:19:49;99381.81;;;7.47;55.55